Time;durP1;ratioP1;P1;durP2;ratioP2;P2;SDS_P1;SDS_P2;PMS_P1;PMS_P2;Temp;Humidity;BMP_temperature;BMP_pressure;BME280_temperature;BME280_humidity;BME280_pressure;Samples;Min_cycle;Max_cycle;Signal;HPM_P1;HPM_P2
2023/01/22 00:01:29;;;;;;;;;;;9.40;99.90;;;;;;5071204;28;19995;-76
2023/01/22 00:03:54;;;;;;;;;;;9.40;99.90;;;;;;5071840;28;19908;-76
2023/01/22 00:06:22;;;;;;;;;;;9.30;99.90;;;;;;5071456;28;19916;-78
2023/01/22 00:08:48;;;;;;;;;;;9.40;99.90;;;;;;5072046;28;19909;-77
2023/01/22 00:11:14;;;;;;;;;;;9.30;99.90;;;;;;5071521;28;19917;-81
2023/01/22 00:13:39;;;;;;;;;;;9.30;99.90;;;;;;5071575;28;19908;-77
2023/01/22 00:16:05;;;;;;;;;;;9.30;99.90;;;;;;5071984;28;19915;-77
2023/01/22 00:18:31;;;;;;;;;;;9.30;99.90;;;;;;5071333;28;19974;-77
2023/01/22 00:20:57;;;;;;;;;;;9.30;99.90;;;;;;5071714;28;19912;-77
2023/01/22 00:23:23;;;;;;;;;;;9.20;99.90;;;;;;5071721;28;20329;-77
2023/01/22 00:25:49;;;;;;;;;;;9.20;99.90;;;;;;5072049;28;19908;-77
2023/01/22 00:28:15;;;;;;;;;;;9.20;99.90;;;;;;5070952;28;19944;-78
2023/01/22 00:30:41;;;;;;;;;;;9.20;99.90;;;;;;5070594;28;19944;-77
2023/01/22 00:33:07;;;;;;;;;;;9.20;99.90;;;;;;5071692;28;19913;-76
2023/01/22 00:35:33;;;;;;;;;;;9.20;99.90;;;;;;5070927;28;19908;-77
2023/01/22 00:37:58;;;;;;;;;;;9.20;99.90;;;;;;5071552;28;19916;-79
2023/01/22 00:40:24;;;;;;;;;;;9.20;99.90;;;;;;5071339;28;19908;-77
2023/01/22 00:42:49;;;;;;;;;;;9.20;99.90;;;;;;5071691;28;19913;-79
2023/01/22 00:45:15;;;;;;;;;;;9.10;99.90;;;;;;5071800;28;19916;-79
2023/01/22 00:47:40;;;;;;;;;;;9.20;99.90;;;;;;5071613;28;19962;-78
2023/01/22 00:50:06;;;;;;;;;;;9.20;99.90;;;;;;5071998;28;20011;-78
2023/01/22 00:52:32;;;;;;;;;;;9.20;99.90;;;;;;5070965;28;20184;-78
2023/01/22 00:54:58;;;;;;;;;;;9.20;99.90;;;;;;5072443;28;19920;-78
2023/01/22 00:57:23;;;;;;;;;;;9.20;99.90;;;;;;5071728;28;19965;-79
2023/01/22 00:59:49;;;;;;;;;;;9.20;99.90;;;;;;5072192;28;19962;-77
2023/01/22 01:02:15;;;;;;;;;;;9.20;99.90;;;;;;5071558;28;19909;-81
2023/01/22 01:04:41;;;;;;;;;;;9.20;99.90;;;;;;5072733;28;19932;-78
2023/01/22 01:07:06;;;;;;;;;;;9.20;99.90;;;;;;5072077;28;19939;-78
2023/01/22 01:09:32;;;;;;;;;;;9.30;99.90;;;;;;5070014;28;19909;-77
2023/01/22 01:11:59;;;;;;;;;;;9.30;99.90;;;;;;5071574;28;19970;-77
2023/01/22 01:14:25;;;;;;;;;;;9.30;99.90;;;;;;5071007;28;20051;-78
2023/01/22 01:16:51;;;;;;;;;;;9.30;99.90;;;;;;5072010;28;20377;-77
2023/01/22 01:19:19;;;;;;;;;;;9.30;99.90;;;;;;5070775;28;19994;-79
2023/01/22 01:21:45;;;;;;;;;;;9.30;99.90;;;;;;5071585;28;19916;-77
2023/01/22 01:24:10;;;;;;;;;;;9.30;99.90;;;;;;5069820;28;19924;-77
2023/01/22 01:26:38;;;;;;;;;;;9.30;99.90;;;;;;5070798;28;19904;-77
2023/01/22 01:29:03;;;;;;;;;;;9.20;99.90;;;;;;5071122;28;19917;-78
2023/01/22 01:31:29;;;;;;;;;;;9.20;99.90;;;;;;5069410;28;20227;-77
2023/01/22 01:33:55;;;;;;;;;;;9.30;99.90;;;;;;5071432;28;19939;-77
2023/01/22 01:36:22;;;;;;;;;;;9.30;99.90;;;;;;5071321;28;19920;-78
2023/01/22 01:38:48;;;;;;;;;;;9.30;99.90;;;;;;5071459;28;19908;-77
2023/01/22 01:41:15;;;;;;;;;;;9.30;99.90;;;;;;5071338;28;20004;-78
2023/01/22 01:43:41;;;;;;;;;;;9.30;99.90;;;;;;5069993;28;20428;-77
2023/01/22 01:46:32;;;;;;;;;;;9.30;99.90;;;;;;5071475;28;19955;-78
2023/01/22 01:48:58;;;;;;;;;;;9.30;99.90;;;;;;5069048;28;19908;-78
2023/01/22 01:51:28;;;;;;;;;;;9.30;99.90;;;;;;5071012;28;19927;-78
2023/01/22 01:53:54;;;;;;;;;;;9.30;99.90;;;;;;5071176;28;20281;-77
2023/01/22 01:56:28;;;;;;;;;;;9.20;99.90;;;;;;5070570;28;20059;-77
2023/01/22 01:58:56;;;;;;;;;;;9.20;99.90;;;;;;5071283;28;19908;-77
2023/01/22 02:01:21;;;;;;;;;;;9.20;99.90;;;;;;5070639;28;19957;-78
2023/01/22 02:03:47;;;;;;;;;;;9.20;99.90;;;;;;5071344;28;20003;-77
2023/01/22 02:06:14;;;;;;;;;;;9.20;99.90;;;;;;5070902;28;19908;-77
2023/01/22 02:08:41;;;;;;;;;;;9.20;99.90;;;;;;5070183;28;19920;-78
2023/01/22 02:11:08;;;;;;;;;;;9.10;99.90;;;;;;5070961;28;20258;-78
2023/01/22 02:13:34;;;;;;;;;;;9.20;99.90;;;;;;5070231;28;19909;-78
2023/01/22 02:16:00;;;;;;;;;;;9.20;99.90;;;;;;5070988;28;20384;-77
2023/01/22 02:18:26;;;;;;;;;;;9.10;99.90;;;;;;5070288;28;19912;-77
2023/01/22 02:20:54;;;;;;;;;;;9.10;99.90;;;;;;5070819;28;19959;-77
2023/01/22 02:23:20;;;;;;;;;;;9.10;99.90;;;;;;5068977;28;19912;-80
2023/01/22 02:25:45;;;;;;;;;;;9.10;99.90;;;;;;5070334;28;20383;-77
2023/01/22 02:28:11;;;;;;;;;;;9.10;99.90;;;;;;5052685;28;19970;-77
2023/01/22 02:30:36;;;;;;;;;;;9.00;99.90;;;;;;5070263;28;19999;-76
2023/01/22 02:33:02;;;;;;;;;;;9.00;99.90;;;;;;5070499;28;19916;-77
2023/01/22 02:35:28;;;;;;;;;;;9.00;99.90;;;;;;5070353;28;20004;-77
2023/01/22 02:37:53;;;;;;;;;;;9.00;99.90;;;;;;5070449;28;20407;-77
2023/01/22 02:40:19;;;;;;;;;;;9.00;99.90;;;;;;5069528;28;19908;-77
2023/01/22 02:42:44;;;;;;;;;;;9.00;99.90;;;;;;5070397;28;19909;-76
2023/01/22 02:45:10;;;;;;;;;;;9.10;99.90;;;;;;5070363;28;19908;-77
2023/01/22 02:47:36;;;;;;;;;;;9.10;99.90;;;;;;5070006;28;20370;-77
2023/01/22 02:50:01;;;;;;;;;;;9.00;99.90;;;;;;5070261;28;19909;-77
2023/01/22 02:52:27;;;;;;;;;;;9.10;99.90;;;;;;5070482;28;20324;-76
2023/01/22 02:54:53;;;;;;;;;;;9.10;99.90;;;;;;5070524;28;19966;-77
2023/01/22 02:57:18;;;;;;;;;;;9.10;99.90;;;;;;5070313;28;19952;-76
2023/01/22 02:59:44;;;;;;;;;;;9.10;99.90;;;;;;5069943;28;20003;-76
2023/01/22 03:02:10;;;;;;;;;;;9.10;99.90;;;;;;5070278;28;19962;-77
2023/01/22 03:04:35;;;;;;;;;;;9.10;99.90;;;;;;5069889;28;20003;-76
2023/01/22 03:07:01;;;;;;;;;;;9.10;99.90;;;;;;5070920;28;19920;-76
2023/01/22 03:09:26;;;;;;;;;;;9.10;99.90;;;;;;5070100;28;19999;-77
2023/01/22 03:11:52;;;;;;;;;;;9.20;99.90;;;;;;5070036;28;20375;-77
2023/01/22 03:22:30;;;;;;;;;;;9.20;99.90;;;;;;5073405;28;19962;-76
2023/01/22 03:24:57;;;;;;;;;;;9.20;99.90;;;;;;5073969;28;19995;-76
2023/01/22 03:27:24;;;;;;;;;;;9.20;99.90;;;;;;5073272;28;20349;-79
2023/01/22 03:29:50;;;;;;;;;;;9.20;99.90;;;;;;5073528;28;19962;-77
2023/01/22 03:32:15;;;;;;;;;;;9.20;99.90;;;;;;5073688;28;20269;-77
2023/01/22 03:34:41;;;;;;;;;;;9.20;99.90;;;;;;5073164;28;19923;-77
2023/01/22 03:37:07;;;;;;;;;;;9.20;99.90;;;;;;5072376;28;19909;-77
2023/01/22 03:39:33;;;;;;;;;;;9.20;99.90;;;;;;5073058;28;19908;-77
2023/01/22 03:41:59;;;;;;;;;;;9.20;99.90;;;;;;5073727;28;19940;-77
2023/01/22 03:44:24;;;;;;;;;;;9.20;99.90;;;;;;5073186;28;19955;-81
2023/01/22 03:46:50;;;;;;;;;;;9.20;99.90;;;;;;5073202;28;19912;-77
2023/01/22 03:49:16;;;;;;;;;;;9.20;99.90;;;;;;5073566;28;19958;-77
2023/01/22 03:51:42;;;;;;;;;;;9.20;99.90;;;;;;5072800;28;20010;-77
2023/01/22 03:54:10;;;;;;;;;;;9.30;99.90;;;;;;5073148;28;19948;-77
2023/01/22 03:56:35;;;;;;;;;;;9.30;99.90;;;;;;5072909;28;19939;-77
2023/01/22 03:59:01;;;;;;;;;;;9.30;99.90;;;;;;5073829;28;19912;-77
2023/01/22 04:01:27;;;;;;;;;;;9.30;99.90;;;;;;5072581;28;19908;-80
2023/01/22 04:03:53;;;;;;;;;;;9.30;99.90;;;;;;5073345;28;19955;-78
2023/01/22 04:06:19;;;;;;;;;;;9.20;99.90;;;;;;5073409;28;20377;-77
2023/01/22 04:08:45;;;;;;;;;;;9.20;99.90;;;;;;5071006;28;20815;-78
2023/01/22 04:11:11;;;;;;;;;;;9.20;99.90;;;;;;5073065;28;19932;-77
2023/01/22 04:13:37;;;;;;;;;;;9.30;99.90;;;;;;5072329;28;19962;-77
2023/01/22 04:16:03;;;;;;;;;;;9.30;99.90;;;;;;5072812;28;20247;-77
2023/01/22 04:18:29;;;;;;;;;;;9.30;99.90;;;;;;5072343;28;19939;-78
2023/01/22 04:20:54;;;;;;;;;;;9.30;99.90;;;;;;5072319;28;20374;-77
2023/01/22 04:23:21;;;;;;;;;;;9.30;99.90;;;;;;5072733;28;19919;-77
2023/01/22 04:25:47;;;;;;;;;;;9.30;99.90;;;;;;5071230;28;19912;-77
2023/01/22 04:28:13;;;;;;;;;;;9.30;99.90;;;;;;5072539;28;19916;-77
2023/01/22 04:30:39;;;;;;;;;;;9.30;99.90;;;;;;5071805;28;19920;-77
2023/01/22 04:33:05;;;;;;;;;;;9.30;99.90;;;;;;5070730;28;19930;-77
2023/01/22 04:35:30;;;;;;;;;;;9.30;99.90;;;;;;5071673;28;20348;-78
2023/01/22 04:37:56;;;;;;;;;;;9.30;99.90;;;;;;5072409;28;19909;-77
2023/01/22 04:40:22;;;;;;;;;;;9.30;99.90;;;;;;5072401;28;19908;-77
2023/01/22 04:42:47;;;;;;;;;;;9.30;99.90;;;;;;5070621;28;19920;-77
2023/01/22 04:45:13;;;;;;;;;;;9.30;99.90;;;;;;5072104;28;19909;-77
2023/01/22 04:47:40;;;;;;;;;;;9.30;99.90;;;;;;5071500;28;19953;-78
2023/01/22 04:50:05;;;;;;;;;;;9.30;99.90;;;;;;5072190;28;19915;-78
2023/01/22 04:52:31;;;;;;;;;;;9.40;99.90;;;;;;5071290;28;19920;-79
2023/01/22 04:54:56;;;;;;;;;;;9.40;99.90;;;;;;5071941;28;20337;-78
2023/01/22 04:57:22;;;;;;;;;;;9.40;99.90;;;;;;5071726;28;19908;-79
2023/01/22 04:59:48;;;;;;;;;;;9.40;99.90;;;;;;5071746;28;19916;-77
2023/01/22 05:02:13;;;;;;;;;;;9.40;99.90;;;;;;5071918;28;19969;-75
2023/01/22 05:04:39;;;;;;;;;;;9.50;99.90;;;;;;5070616;28;19976;-76
2023/01/22 05:07:04;;;;;;;;;;;9.50;99.90;;;;;;5071918;28;20405;-78
2023/01/22 05:09:30;;;;;;;;;;;9.50;99.90;;;;;;5071725;28;20277;-81
2023/01/22 05:11:55;;;;;;;;;;;9.50;99.90;;;;;;5072098;28;20298;-78
2023/01/22 05:14:21;;;;;;;;;;;9.50;99.90;;;;;;5070691;28;19913;-77
2023/01/22 05:16:47;;;;;;;;;;;9.50;99.90;;;;;;5071149;28;20362;-77
2023/01/22 05:19:13;;;;;;;;;;;9.50;99.90;;;;;;5071932;28;19916;-77
2023/01/22 05:21:39;;;;;;;;;;;9.50;99.90;;;;;;5069566;28;19965;-78
2023/01/22 05:24:04;;;;;;;;;;;9.50;99.90;;;;;;5071980;28;19943;-78
2023/01/22 05:26:30;;;;;;;;;;;9.50;99.90;;;;;;5071729;28;19908;-80
2023/01/22 05:28:55;;;;;;;;;;;9.50;99.90;;;;;;5071220;28;19931;-78
2023/01/22 05:31:21;;;;;;;;;;;9.40;99.90;;;;;;5071853;28;20019;-77
2023/01/22 05:33:47;;;;;;;;;;;9.40;99.90;;;;;;5071238;28;19908;-78
2023/01/22 05:36:13;;;;;;;;;;;9.40;99.90;;;;;;5071833;28;19988;-77
2023/01/22 05:38:38;;;;;;;;;;;9.40;99.90;;;;;;5070879;28;19916;-78
2023/01/22 05:41:04;;;;;;;;;;;9.40;99.90;;;;;;5071700;28;19999;-78
2023/01/22 05:43:29;;;;;;;;;;;9.40;99.90;;;;;;5071695;28;20004;-78
2023/01/22 05:46:01;;;;;;;;;;;9.40;99.90;;;;;;5071043;28;19948;-78
2023/01/22 05:48:26;;;;;;;;;;;9.40;99.90;;;;;;5071622;28;19915;-78
2023/01/22 05:50:52;;;;;;;;;;;9.40;99.90;;;;;;5071277;28;19921;-78
2023/01/22 05:53:17;;;;;;;;;;;9.40;99.90;;;;;;5071473;28;19989;-78
2023/01/22 05:55:43;;;;;;;;;;;9.40;99.90;;;;;;5070931;28;19928;-78
2023/01/22 05:58:09;;;;;;;;;;;9.30;99.90;;;;;;5071745;28;19909;-78
2023/01/22 06:00:34;;;;;;;;;;;9.30;99.90;;;;;;5071191;28;20305;-81
2023/01/22 06:03:01;;;;;;;;;;;9.30;99.90;;;;;;5071061;28;19908;-78
2023/01/22 06:05:26;;;;;;;;;;;9.30;99.90;;;;;;5071043;28;19971;-77
2023/01/22 06:07:52;;;;;;;;;;;9.20;99.90;;;;;;5070462;28;20756;-78
2023/01/22 06:10:18;;;;;;;;;;;9.20;99.90;;;;;;5071249;28;19909;-77
2023/01/22 06:12:43;;;;;;;;;;;9.20;99.90;;;;;;5070278;28;19940;-77
2023/01/22 06:15:09;;;;;;;;;;;9.30;99.90;;;;;;5070797;28;19997;-77
2023/01/22 06:17:35;;;;;;;;;;;9.30;99.90;;;;;;5070637;28;19930;-80
2023/01/22 06:20:01;;;;;;;;;;;9.30;99.90;;;;;;5071378;28;20310;-77
2023/01/22 06:22:26;;;;;;;;;;;9.20;99.90;;;;;;5071099;28;19912;-78
2023/01/22 06:24:52;;;;;;;;;;;9.20;99.90;;;;;;5070654;28;19952;-77
2023/01/22 06:27:17;;;;;;;;;;;9.20;99.90;;;;;;5070907;28;19943;-77
2023/01/22 06:29:43;;;;;;;;;;;9.20;99.90;;;;;;5070408;28;19909;-76
2023/01/22 06:32:09;;;;;;;;;;;9.20;99.90;;;;;;5071074;28;19962;-77
2023/01/22 06:34:34;;;;;;;;;;;9.20;99.90;;;;;;5069265;28;20010;-81
2023/01/22 06:37:00;;;;;;;;;;;9.20;99.90;;;;;;5070271;28;19996;-78
2023/01/22 06:39:25;;;;;;;;;;;9.20;99.90;;;;;;5070899;28;20304;-78
2023/01/22 06:41:51;;;;;;;;;;;9.20;99.90;;;;;;5070392;28;19913;-77
2023/01/22 06:44:17;;;;;;;;;;;9.20;99.90;;;;;;5070865;28;19908;-78
2023/01/22 06:46:44;;;;;;;;;;;9.20;99.90;;;;;;5068910;28;19915;-77
2023/01/22 06:49:10;;;;;;;;;;;9.20;99.90;;;;;;5071206;28;19998;-77
2023/01/22 06:51:35;;;;;;;;;;;9.20;99.90;;;;;;5074597;28;20074;-80
2023/01/22 06:54:01;;;;;;;;;;;9.20;99.90;;;;;;5073981;28;19913;-77
2023/01/22 06:56:27;;;;;;;;;;;9.20;99.90;;;;;;5074807;28;19924;-78
2023/01/22 06:58:52;;;;;;;;;;;9.20;99.90;;;;;;5073893;28;19908;-78
2023/01/22 07:01:18;;;;;;;;;;;9.20;99.90;;;;;;5072604;28;19915;-77
2023/01/22 07:03:44;;;;;;;;;;;9.10;99.90;;;;;;5073900;28;19958;-76
2023/01/22 07:06:10;;;;;;;;;;;9.20;99.90;;;;;;5074194;28;19920;-76
2023/01/22 07:08:36;;;;;;;;;;;9.20;99.90;;;;;;5074012;28;19993;-77
2023/01/22 07:11:02;;;;;;;;;;;9.30;99.90;;;;;;5073606;28;19970;-76
2023/01/22 07:13:28;;;;;;;;;;;9.20;99.90;;;;;;5074048;28;20257;-77
2023/01/22 07:15:54;;;;;;;;;;;9.20;99.90;;;;;;5073693;28;19970;-77
2023/01/22 07:18:22;;;;;;;;;;;9.30;99.90;;;;;;5074118;28;19908;-77
2023/01/22 07:20:48;;;;;;;;;;;9.40;99.90;;;;;;5073492;28;19930;-77
2023/01/22 07:23:14;;;;;;;;;;;9.40;99.90;;;;;;5073567;28;20018;-77
2023/01/22 07:25:39;;;;;;;;;;;9.40;99.90;;;;;;5073317;28;19908;-80
2023/01/22 07:28:05;;;;;;;;;;;9.40;99.90;;;;;;5073190;28;19916;-77
2023/01/22 07:30:31;;;;;;;;;;;9.40;99.90;;;;;;5073593;28;19913;-77
2023/01/22 07:32:58;;;;;;;;;;;9.40;99.90;;;;;;5073008;28;20242;-76
2023/01/22 07:35:23;;;;;;;;;;;9.40;99.90;;;;;;5074119;28;19908;-76
2023/01/22 07:37:53;;;;;;;;;;;9.30;99.90;;;;;;5071844;28;19932;-76
2023/01/22 07:40:18;;;;;;;;;;;9.30;99.90;;;;;;5073776;28;20003;-76
2023/01/22 07:42:44;;;;;;;;;;;9.30;99.90;;;;;;5073046;28;19947;-76
2023/01/22 07:45:10;;;;;;;;;;;9.30;99.90;;;;;;5072847;28;19909;-77
2023/01/22 07:47:35;;;;;;;;;;;9.30;99.90;;;;;;5073227;28;19909;-77
2023/01/22 07:50:01;;;;;;;;;;;9.30;99.90;;;;;;5072534;28;20636;-77
2023/01/22 07:52:26;;;;;;;;;;;9.30;99.90;;;;;;5071965;28;19916;-77
2023/01/22 07:54:52;;;;;;;;;;;9.40;99.90;;;;;;5072098;28;19960;-76
2023/01/22 07:57:17;;;;;;;;;;;9.40;99.90;;;;;;5071339;28;20383;-76
2023/01/22 07:59:43;;;;;;;;;;;9.40;99.90;;;;;;5072265;28;19999;-78
2023/01/22 08:02:13;;;;;;;;;;;9.40;99.90;;;;;;5072857;28;19963;-78
2023/01/22 08:04:42;;;;;;;;;;;9.40;99.90;;;;;;5072807;28;19919;-77
2023/01/22 08:07:16;;;;;;;;;;;9.40;99.90;;;;;;5073353;28;20031;-77
2023/01/22 08:09:42;;;;;;;;;;;9.50;99.90;;;;;;5072217;28;20287;-81
2023/01/22 08:12:08;;;;;;;;;;;9.50;99.90;;;;;;5072563;28;20369;-77
2023/01/22 08:14:33;;;;;;;;;;;9.50;99.90;;;;;;5072717;28;19913;-77
2023/01/22 08:16:59;;;;;;;;;;;9.50;99.90;;;;;;5071845;28;20262;-77
2023/01/22 08:19:25;;;;;;;;;;;9.60;99.90;;;;;;5072872;28;19971;-77
2023/01/22 08:21:50;;;;;;;;;;;9.60;99.90;;;;;;5072096;28;19912;-77
2023/01/22 08:24:16;;;;;;;;;;;9.60;99.90;;;;;;5072201;28;19908;-77
2023/01/22 08:26:44;;;;;;;;;;;9.60;99.90;;;;;;5072209;28;19996;-78
2023/01/22 08:29:09;;;;;;;;;;;9.60;99.90;;;;;;5070598;28;19915;-77
2023/01/22 08:31:35;;;;;;;;;;;9.60;99.90;;;;;;5072003;28;20258;-77
2023/01/22 08:34:00;;;;;;;;;;;9.70;99.90;;;;;;5070160;28;19912;-77
2023/01/22 08:36:26;;;;;;;;;;;9.70;99.90;;;;;;5070618;28;19912;-78
2023/01/22 08:38:52;;;;;;;;;;;9.70;99.90;;;;;;5071659;28;19912;-77
2023/01/22 08:41:17;;;;;;;;;;;9.70;99.90;;;;;;5071925;28;20377;-77
2023/01/22 08:43:43;;;;;;;;;;;9.60;99.90;;;;;;5072124;28;20250;-82
2023/01/22 08:46:08;;;;;;;;;;;9.70;99.90;;;;;;5072065;28;19909;-79
2023/01/22 08:48:35;;;;;;;;;;;9.70;99.90;;;;;;5071813;28;19974;-77
2023/01/22 08:51:00;;;;;;;;;;;9.70;99.90;;;;;;5071185;28;19920;-77
2023/01/22 08:53:27;;;;;;;;;;;9.70;99.90;;;;;;5072036;28;19908;-77
2023/01/22 08:55:52;;;;;;;;;;;9.60;99.90;;;;;;5070937;28;20426;-77
2023/01/22 08:58:20;;;;;;;;;;;9.70;99.90;;;;;;5071940;28;19916;-77
2023/01/22 09:00:47;;;;;;;;;;;9.70;99.90;;;;;;5070236;28;20268;-80
2023/01/22 09:03:12;;;;;;;;;;;9.70;99.90;;;;;;5071983;28;20326;-77
2023/01/22 09:05:39;;;;;;;;;;;9.70;99.90;;;;;;5070474;28;19919;-78
2023/01/22 09:08:05;;;;;;;;;;;9.80;99.90;;;;;;5071445;28;19920;-78
2023/01/22 09:10:30;;;;;;;;;;;9.80;99.90;;;;;;5071681;28;19988;-78
2023/01/22 09:12:59;;;;;;;;;;;9.90;99.90;;;;;;5070103;28;19916;-77
2023/01/22 09:15:25;;;;;;;;;;;9.90;99.90;;;;;;5064094;28;19912;-77
2023/01/22 09:17:50;;;;;;;;;;;9.90;99.90;;;;;;5060507;28;19919;-77
2023/01/22 09:20:16;;;;;;;;;;;10.00;99.90;;;;;;5068766;28;19976;-78
2023/01/22 09:22:45;;;;;;;;;;;10.00;99.90;;;;;;5069934;28;19944;-78
2023/01/22 09:25:11;;;;;;;;;;;10.00;99.90;;;;;;5071342;28;20358;-78
2023/01/22 09:27:36;;;;;;;;;;;10.00;99.90;;;;;;5067005;28;19913;-77
2023/01/22 09:30:02;;;;;;;;;;;10.00;99.90;;;;;;5058765;28;19954;-79
2023/01/22 09:32:27;;;;;;;;;;;10.00;99.90;;;;;;5062003;28;20015;-78
2023/01/22 09:34:53;;;;;;;;;;;10.10;99.90;;;;;;5061265;28;20300;-77
2023/01/22 09:37:19;;;;;;;;;;;10.00;99.90;;;;;;5058992;28;19920;-76
2023/01/22 09:39:46;;;;;;;;;;;10.10;99.90;;;;;;5061366;28;19996;-75
2023/01/22 09:42:16;;;;;;;;;;;10.10;99.90;;;;;;5059797;28;19909;-77
2023/01/22 09:44:43;;;;;;;;;;;10.10;99.90;;;;;;5055596;28;20214;-76
2023/01/22 09:47:11;;;;;;;;;;;10.10;99.90;;;;;;5050560;28;20594;-76
2023/01/22 09:49:45;;;;;;;;;;;10.20;99.90;;;;;;5050646;28;19963;-78
2023/01/22 09:52:10;;;;;;;;;;;10.20;99.90;;;;;;5050508;28;19916;-77
2023/01/22 09:54:36;;;;;;;;;;;10.30;99.90;;;;;;5050747;28;19951;-77
2023/01/22 09:57:03;;;;;;;;;;;10.30;99.90;;;;;;5050514;28;20234;-77
2023/01/22 09:59:38;;;;;;;;;;;10.30;99.90;;;;;;5051115;28;19999;-76
2023/01/22 10:02:21;;;;;;;;;;;10.30;99.90;;;;;;5050718;28;19915;-77
2023/01/22 10:04:50;;;;;;;;;;;10.40;99.90;;;;;;5051207;28;19909;-76
2023/01/22 10:07:24;;;;;;;;;;;10.50;99.90;;;;;;5050892;28;19916;-76
2023/01/22 10:09:52;;;;;;;;;;;10.50;99.90;;;;;;5050339;28;20007;-79
2023/01/22 10:12:17;;;;;;;;;;;10.50;99.90;;;;;;5050643;28;19917;-76
2023/01/22 10:14:43;;;;;;;;;;;10.50;99.90;;;;;;5051023;28;19916;-76
2023/01/22 10:17:18;;;;;;;;;;;10.50;99.90;;;;;;5050203;28;19965;-76
2023/01/22 10:19:45;;;;;;;;;;;10.60;99.90;;;;;;5054148;28;19995;-77
2023/01/22 10:22:22;;;;;;;;;;;10.60;99.90;;;;;;5058293;28;19917;-77
2023/01/22 10:24:48;;;;;;;;;;;10.60;99.90;;;;;;5067261;28;19916;-77
2023/01/22 10:27:15;;;;;;;;;;;10.60;99.90;;;;;;5062941;28;19915;-77
2023/01/22 10:29:43;;;;;;;;;;;10.60;99.90;;;;;;5054566;28;20385;-77
2023/01/22 10:32:38;;;;;;;;;;;10.60;99.90;;;;;;5054579;28;19924;-77
2023/01/22 10:35:06;;;;;;;;;;;10.60;99.90;;;;;;5048859;28;19932;-76
2023/01/22 10:37:43;;;;;;;;;;;10.70;99.90;;;;;;5054895;28;19913;-76
2023/01/22 10:40:19;;;;;;;;;;;10.70;99.90;;;;;;5053608;28;19913;-77
2023/01/22 10:42:44;;;;;;;;;;;10.70;99.90;;;;;;5053552;28;20003;-76
2023/01/22 10:45:14;;;;;;;;;;;10.70;99.90;;;;;;5055221;28;20080;-76
2023/01/22 10:47:40;;;;;;;;;;;10.70;99.90;;;;;;5055964;28;19999;-76
2023/01/22 10:50:11;;;;;;;;;;;10.70;99.90;;;;;;5054948;28;19959;-76
2023/01/22 10:52:46;;;;;;;;;;;10.70;99.90;;;;;;5054801;28;19944;-76
2023/01/22 10:55:20;;;;;;;;;;;10.70;99.90;;;;;;5054426;28;19928;-76
2023/01/22 10:57:48;;;;;;;;;;;10.70;99.90;;;;;;5054175;28;20366;-76
2023/01/22 11:00:14;;;;;;;;;;;10.70;99.90;;;;;;5055574;28;20543;-77
2023/01/22 11:02:41;;;;;;;;;;;10.80;99.90;;;;;;5055990;28;19959;-78
2023/01/22 11:05:15;;;;;;;;;;;10.80;99.90;;;;;;5054714;28;19916;-77
2023/01/22 11:07:41;;;;;;;;;;;10.80;99.90;;;;;;5054742;28;20000;-77
2023/01/22 11:10:26;;;;;;;;;;;10.80;99.90;;;;;;5055059;28;19916;-77
2023/01/22 11:13:11;;;;;;;;;;;10.80;99.90;;;;;;5054954;28;19928;-77
2023/01/22 11:15:43;;;;;;;;;;;10.90;99.90;;;;;;5045414;28;19909;-78
2023/01/22 11:18:16;;;;;;;;;;;10.90;99.90;;;;;;5054301;28;19913;-78
2023/01/22 11:20:41;;;;;;;;;;;10.90;99.90;;;;;;5055615;28;20319;-77
2023/01/22 11:23:09;;;;;;;;;;;10.90;99.90;;;;;;5054491;28;19940;-77
2023/01/22 11:25:39;;;;;;;;;;;10.90;99.90;;;;;;5053330;28;19940;-77
2023/01/22 11:28:05;;;;;;;;;;;10.90;99.90;;;;;;5054082;28;19931;-76
2023/01/22 11:30:40;;;;;;;;;;;10.90;99.90;;;;;;5055656;28;20258;-77
2023/01/22 11:33:08;;;;;;;;;;;11.00;99.90;;;;;;5053738;28;19923;-77
2023/01/22 11:35:45;;;;;;;;;;;11.00;99.90;;;;;;5053866;28;19909;-76
2023/01/22 11:38:20;;;;;;;;;;;11.00;99.90;;;;;;5052743;28;19989;-77
2023/01/22 11:41:00;;;;;;;;;;;11.00;99.90;;;;;;5053524;28;19916;-77
2023/01/22 11:43:41;;;;;;;;;;;11.00;99.90;;;;;;5054723;28;19909;-76
2023/01/22 11:46:23;;;;;;;;;;;11.00;99.90;;;;;;5052433;28;19932;-77
2023/01/22 11:48:55;;;;;;;;;;;11.10;99.90;;;;;;5052462;28;19940;-76
2023/01/22 11:51:26;;;;;;;;;;;11.10;99.90;;;;;;5053396;28;19917;-76
2023/01/22 11:53:51;;;;;;;;;;;11.10;99.90;;;;;;5052948;28;20282;-76
2023/01/22 11:56:20;;;;;;;;;;;11.10;99.90;;;;;;5051521;28;19974;-76
2023/01/22 11:59:01;;;;;;;;;;;11.20;99.90;;;;;;5053165;28;20058;-77
2023/01/22 12:01:34;;;;;;;;;;;11.20;99.90;;;;;;5053765;28;19908;-77
2023/01/22 12:04:11;;;;;;;;;;;11.20;99.90;;;;;;5053162;28;19974;-76
2023/01/22 12:06:45;;;;;;;;;;;11.20;99.90;;;;;;5052903;28;19909;-76
2023/01/22 12:09:23;;;;;;;;;;;11.30;99.90;;;;;;5052722;28;19919;-76
2023/01/22 12:12:01;;;;;;;;;;;11.30;99.90;;;;;;5052770;28;20351;-77
2023/01/22 12:14:45;;;;;;;;;;;11.30;99.90;;;;;;5052617;28;19959;-76
2023/01/22 12:17:14;;;;;;;;;;;11.40;99.90;;;;;;5052547;28;19912;-76
2023/01/22 12:19:50;;;;;;;;;;;11.40;99.90;;;;;;5052760;28;19932;-77
2023/01/22 12:22:15;;;;;;;;;;;11.40;99.90;;;;;;5051684;28;19915;-77
2023/01/22 12:24:50;;;;;;;;;;;11.40;99.90;;;;;;5052862;28;19913;-76
2023/01/22 12:27:23;;;;;;;;;;;11.40;99.90;;;;;;5051798;28;19995;-77
2023/01/22 12:29:52;;;;;;;;;;;11.40;99.90;;;;;;5053506;28;20053;-77
2023/01/22 12:32:20;;;;;;;;;;;11.40;99.90;;;;;;5052413;28;19996;-77
2023/01/22 12:34:55;;;;;;;;;;;11.50;99.90;;;;;;5052862;28;19909;-76
2023/01/22 12:37:24;;;;;;;;;;;11.40;99.90;;;;;;5049946;28;19973;-77
2023/01/22 12:39:52;;;;;;;;;;;11.50;99.90;;;;;;5052385;28;20338;-76
2023/01/22 12:42:38;;;;;;;;;;;11.50;99.90;;;;;;5052826;28;20095;-76
2023/01/22 12:45:14;;;;;;;;;;;11.50;99.90;;;;;;5051428;28;20341;-77
2023/01/22 12:47:45;;;;;;;;;;;11.60;99.90;;;;;;5051673;28;19909;-76
2023/01/22 12:50:15;;;;;;;;;;;11.60;99.90;;;;;;5051566;28;19920;-76
2023/01/22 12:52:41;;;;;;;;;;;11.60;99.90;;;;;;5052287;28;19940;-76
2023/01/22 12:55:22;;;;;;;;;;;11.60;99.90;;;;;;5054449;28;20361;-76
2023/01/22 12:57:47;;;;;;;;;;;11.60;99.90;;;;;;5060226;28;19909;-76
2023/01/22 13:00:19;;;;;;;;;;;11.60;99.90;;;;;;5060040;28;19915;-76
2023/01/22 13:02:45;;;;;;;;;;;11.60;99.90;;;;;;5071672;28;19915;-76
2023/01/22 13:05:12;;;;;;;;;;;11.70;99.90;;;;;;5071125;28;19916;-75
2023/01/22 13:07:45;;;;;;;;;;;11.70;99.90;;;;;;5108090;27;20373;-75
2023/01/22 13:10:25;;;;;;;;;;;11.70;99.90;;;;;;5108331;28;19912;-76
2023/01/22 13:12:53;;;;;;;;;;;11.70;99.90;;;;;;5108715;28;19908;-77
2023/01/22 13:15:20;;;;;;;;;;;11.80;99.90;;;;;;5108520;28;19908;-77
2023/01/22 13:17:58;;;;;;;;;;;11.80;99.90;;;;;;5109370;28;19919;-77
2023/01/22 13:20:25;;;;;;;;;;;11.70;99.90;;;;;;5108531;28;19908;-78
2023/01/22 13:22:53;;;;;;;;;;;11.70;99.90;;;;;;5109012;28;19908;-78
2023/01/22 13:25:23;;;;;;;;;;;11.70;99.90;;;;;;5109025;28;19908;-77
2023/01/22 13:27:48;;;;;;;;;;;11.60;99.90;;;;;;5108719;28;19908;-78
2023/01/22 13:30:16;;;;;;;;;;;11.70;99.90;;;;;;5108666;28;20061;-78
2023/01/22 13:32:42;;;;;;;;;;;11.70;99.90;;;;;;5109556;28;20006;-78
2023/01/22 13:35:10;;;;;;;;;;;11.70;99.90;;;;;;5108631;28;19951;-78
2023/01/22 13:37:37;;;;;;;;;;;11.70;99.90;;;;;;5109140;28;20306;-77
2023/01/22 13:40:22;;;;;;;;;;;11.70;99.90;;;;;;5108695;28;19908;-81
2023/01/22 13:42:48;;;;;;;;;;;11.80;99.90;;;;;;5109239;28;19915;-77
2023/01/22 13:45:25;;;;;;;;;;;11.80;99.90;;;;;;5108330;28;19908;-78
2023/01/22 13:47:57;;;;;;;;;;;11.90;99.90;;;;;;5108617;28;19968;-78
2023/01/22 13:50:25;;;;;;;;;;;11.80;99.90;;;;;;5108566;28;19974;-78
2023/01/22 13:52:50;;;;;;;;;;;11.80;99.90;;;;;;5108173;28;20433;-77
2023/01/22 13:55:19;;;;;;;;;;;11.80;99.90;;;;;;5108253;28;20003;-78
2023/01/22 13:57:45;;;;;;;;;;;11.80;99.90;;;;;;5108939;28;20006;-78
2023/01/22 14:00:25;;;;;;;;;;;11.70;99.90;;;;;;5107496;28;19919;-78
2023/01/22 14:02:51;;;;;;;;;;;11.70;99.90;;;;;;5106561;28;19934;-78
2023/01/22 14:05:20;;;;;;;;;;;11.70;99.90;;;;;;5107135;28;19912;-78
2023/01/22 14:07:46;;;;;;;;;;;11.70;99.90;;;;;;5108548;28;19924;-78
2023/01/22 14:10:14;;;;;;;;;;;11.70;99.90;;;;;;5106622;28;20053;-78
2023/01/22 14:12:39;;;;;;;;;;;11.70;99.90;;;;;;5108538;28;19908;-78
2023/01/22 14:15:15;;;;;;;;;;;11.70;99.90;;;;;;5108156;28;19920;-82
2023/01/22 14:17:41;;;;;;;;;;;11.70;99.90;;;;;;5103068;28;20222;-78
2023/01/22 14:20:07;;;;;;;;;;;11.60;99.90;;;;;;5094653;28;19912;-82
2023/01/22 14:22:32;;;;;;;;;;;11.70;99.90;;;;;;5094488;28;19908;-78
2023/01/22 14:24:58;;;;;;;;;;;11.70;99.90;;;;;;5094174;28;20326;-77
2023/01/22 14:27:47;;;;;;;;;;;11.60;99.90;;;;;;5093696;28;19912;-78
2023/01/22 14:30:14;;;;;;;;;;;11.60;99.90;;;;;;5089645;28;19984;-78
2023/01/22 14:32:40;;;;;;;;;;;11.50;99.90;;;;;;5094292;28;20372;-78
2023/01/22 14:35:06;;;;;;;;;;;11.50;99.90;;;;;;5091130;28;19964;-81
2023/01/22 14:37:32;;;;;;;;;;;11.50;99.90;;;;;;5092576;28;20014;-77